UAE98V EDDH-OMDB
Flight info
| Callsign | UAE98V |
|---|---|
| Flight time | N/A |
| Altitude | 23000 |
| Route | RAMAR6G RAMAR Z998 NUSGU/N0477F330 Z998 RATMO DCT HDO DCT ODLIV DCT MAVOR DCT TEGRI DCT ADORU/N0478F350 UN739 TUMER UT38 VESAR L620 BALMA UR655 LEBOR R655 KTN R785 RASLI P559 TRF R23 NEVOL N318 TAMRO T503 KSA M321 RESAL T533 RAPMA DCT KUVSO DCT KATIT DCT PEKEM M628 RIGIL G783 ASPED Q308 KIPOK/N0474F340 Q568 IMPED |
| Aircraft | B77W/H-SDE1E2E3FGHIJ2J3J4J5M1RWXY/LB1D1 |
Departure
| Time | 2026-05-07 22:15 |
|---|---|
| Airport | Hamburg Helmut Schmidt Airport (EDDH) |
Arrival
| Time | N/A |
|---|---|
| Airport | Dubai International Airport (OMDB) |
| Time | Latitude | Longitude | Altitude | Speed | Heading |
|---|---|---|---|---|---|
| 2026-05-07 21:50 | 53.63016 | 10.00337 | 54 ft | 0 kts | 122° |
| 2026-05-07 22:09 | 53.63022 | 10.00319 | 55 ft | 4 kts | 122° |
| 2026-05-07 22:09 | 53.63037 | 10.00280 | 47 ft | 4 kts | 122° |
| 2026-05-07 22:09 | 53.63048 | 10.00250 | 47 ft | 4 kts | 125° |
| 2026-05-07 22:09 | 53.63064 | 10.00223 | 47 ft | 4 kts | 182° |
| 2026-05-07 22:10 | 53.63071 | 10.00225 | 55 ft | 3 kts | 212° |
| 2026-05-07 22:10 | 53.63066 | 10.00220 | 51 ft | 1 kts | 212° |
| 2026-05-07 22:12 | 53.63065 | 10.00219 | 51 ft | 2 kts | 212° |
| 2026-05-07 22:12 | 53.63024 | 10.00174 | 49 ft | 10 kts | 212° |
| 2026-05-07 22:12 | 53.62965 | 10.00111 | 48 ft | 10 kts | 212° |
| 2026-05-07 22:12 | 53.62905 | 10.00055 | 49 ft | 10 kts | 197° |
| 2026-05-07 22:13 | 53.62862 | 10.00005 | 51 ft | 2 kts | 234° |
| 2026-05-07 22:13 | 53.62861 | 10.00003 | 51 ft | 0 kts | 234° |
| 2026-05-07 22:14 | 53.62852 | 9.99982 | 51 ft | 7 kts | 234° |
| 2026-05-07 22:14 | 53.62822 | 9.99888 | 48 ft | 9 kts | 245° |
| 2026-05-07 22:14 | 53.62823 | 9.99780 | 50 ft | 10 kts | 308° |
| 2026-05-07 22:14 | 53.62904 | 9.99710 | 48 ft | 23 kts | 332° |
| 2026-05-07 22:15 | 53.63232 | 9.99429 | 48 ft | 88 kts | 333° |
| 2026-05-07 22:15 | 53.63980 | 9.98787 | 49 ft | 151 kts | 332° |
| 2026-05-07 22:15 | 53.65049 | 9.97850 | 117 ft | 189 kts | 333° |
| 2026-05-07 22:15 | 53.66207 | 9.96867 | 676 ft | 190 kts | 336° |
| 2026-05-07 22:16 | 53.67438 | 9.95840 | 1074 ft | 201 kts | 336° |
| 2026-05-07 22:16 | 53.68723 | 9.94801 | 1487 ft | 210 kts | 342° |
| 2026-05-07 22:16 | 53.70208 | 9.94402 | 1673 ft | 226 kts | 6° |
| 2026-05-07 22:16 | 53.71793 | 9.94766 | 1968 ft | 239 kts | 11° |
| 2026-05-07 22:17 | 53.73441 | 9.95467 | 2316 ft | 248 kts | 31° |
| 2026-05-07 22:17 | 53.74628 | 9.97402 | 2854 ft | 246 kts | 65° |
| 2026-05-07 22:17 | 53.75254 | 10.00103 | 3350 ft | 250 kts | 70° |
| 2026-05-07 22:17 | 53.75951 | 10.02836 | 4003 ft | 253 kts | 66° |
| 2026-05-07 22:18 | 53.76696 | 10.05533 | 4763 ft | 254 kts | 66° |
| 2026-05-07 22:18 | 53.78226 | 10.10975 | 6174 ft | 259 kts | 65° |
| 2026-05-07 22:18 | 53.79005 | 10.13725 | 6842 ft | 261 kts | 65° |
| 2026-05-07 22:19 | 53.79802 | 10.16520 | 7419 ft | 266 kts | 65° |
| 2026-05-07 22:19 | 53.80612 | 10.19365 | 8000 ft | 270 kts | 65° |
| 2026-05-07 22:19 | 53.81434 | 10.22238 | 8346 ft | 275 kts | 64° |
| 2026-05-07 22:19 | 53.82290 | 10.25228 | 8679 ft | 288 kts | 64° |
| 2026-05-07 22:20 | 53.83175 | 10.28327 | 9122 ft | 296 kts | 64° |
| 2026-05-07 22:20 | 53.84056 | 10.31416 | 10295 ft | 288 kts | 64° |
| 2026-05-07 22:20 | 53.84752 | 10.34548 | 10838 ft | 287 kts | 81° |
| 2026-05-07 22:20 | 53.84577 | 10.38000 | 10952 ft | 303 kts | 107° |
| 2026-05-07 22:21 | 53.83940 | 10.41489 | 11098 ft | 321 kts | 105° |
| 2026-05-07 22:21 | 53.83383 | 10.45274 | 11262 ft | 342 kts | 103° |
| 2026-05-07 22:21 | 53.82841 | 10.49324 | 11476 ft | 363 kts | 102° |
| 2026-05-07 22:21 | 53.82276 | 10.53558 | 11964 ft | 374 kts | 102° |
| 2026-05-07 22:22 | 53.81690 | 10.57900 | 12665 ft | 381 kts | 103° |
| 2026-05-07 22:22 | 53.81088 | 10.62298 | 13449 ft | 386 kts | 103° |
| 2026-05-07 22:22 | 53.80474 | 10.66759 | 14224 ft | 391 kts | 103° |
| 2026-05-07 22:22 | 53.79719 | 10.71155 | 14762 ft | 391 kts | 114° |
| 2026-05-07 22:23 | 53.78374 | 10.75203 | 15228 ft | 399 kts | 124° |
| 2026-05-07 22:23 | 53.76782 | 10.79060 | 15966 ft | 402 kts | 126° |
| 2026-05-07 22:23 | 53.75205 | 10.82921 | 16677 ft | 407 kts | 124° |
| 2026-05-07 22:23 | 53.73663 | 10.86950 | 17403 ft | 411 kts | 123° |
| 2026-05-07 22:24 | 53.72135 | 10.91060 | 18076 ft | 414 kts | 123° |
| 2026-05-07 22:24 | 53.70388 | 10.94908 | 18489 ft | 415 kts | 138° |
| 2026-05-07 22:24 | 53.67992 | 10.97634 | 18780 ft | 417 kts | 153° |
| 2026-05-07 22:24 | 53.65391 | 10.99912 | 19136 ft | 425 kts | 152° |
| 2026-05-07 22:25 | 53.62806 | 11.02375 | 19796 ft | 427 kts | 150° |
| 2026-05-07 22:25 | 53.60254 | 11.04933 | 20549 ft | 427 kts | 150° |
| 2026-05-07 22:25 | 53.59394 | 11.05807 | 20785 ft | 428 kts | 150° |
| 2026-05-07 22:25 | 53.55127 | 11.10174 | 21730 ft | 436 kts | 149° |
| 2026-05-07 22:26 | 53.52531 | 11.12828 | 22297 ft | 439 kts | 149° |
| 2026-05-07 22:26 | 53.49907 | 11.15501 | 22886 ft | 443 kts | 150° |
| 2026-05-07 22:26 | 53.47257 | 11.18192 | 23466 ft | 446 kts | 150° |
| 2026-05-07 22:26 | 53.44589 | 11.20893 | 23946 ft | 451 kts | 150° |
| 2026-05-07 22:27 | 53.41890 | 11.23621 | 24404 ft | 454 kts | 150° |
| 2026-05-07 22:27 | 53.39177 | 11.26358 | 24889 ft | 456 kts | 150° |
| 2026-05-07 22:27 | 53.36456 | 11.29101 | 25378 ft | 459 kts | 150° |
| 2026-05-07 22:27 | 53.33716 | 11.31859 | 25827 ft | 461 kts | 150° |
| 2026-05-07 22:28 | 53.30951 | 11.34637 | 26262 ft | 465 kts | 150° |
| 2026-05-07 22:28 | 53.28179 | 11.37443 | 26709 ft | 467 kts | 148° |
| 2026-05-07 22:28 | 53.25520 | 11.40583 | 27145 ft | 470 kts | 142° |
| 2026-05-07 22:28 | 53.23088 | 11.44253 | 27541 ft | 474 kts | 136° |
| 2026-05-07 22:29 | 53.20721 | 11.48111 | 27956 ft | 476 kts | 137° |
| 2026-05-07 22:29 | 53.18292 | 11.51867 | 28370 ft | 478 kts | 138° |
| 2026-05-07 22:29 | 53.15824 | 11.55608 | 28712 ft | 481 kts | 138° |
| 2026-05-07 22:29 | 53.13344 | 11.59367 | 29092 ft | 483 kts | 138° |
| 2026-05-07 22:30 | 53.10858 | 11.63140 | 29463 ft | 485 kts | 138° |
| 2026-05-07 22:30 | 53.08366 | 11.66924 | 29870 ft | 485 kts | 138° |
| 2026-05-07 22:30 | 53.05885 | 11.70689 | 30378 ft | 482 kts | 138° |
| 2026-05-07 22:30 | 53.03412 | 11.74436 | 30784 ft | 481 kts | 138° |
| 2026-05-07 22:31 | 53.00972 | 11.78125 | 31216 ft | 479 kts | 138° |
| 2026-05-07 22:31 | 52.98600 | 11.81988 | 31644 ft | 478 kts | 133° |
| 2026-05-07 22:31 | 52.96504 | 11.86265 | 31936 ft | 479 kts | 126° |
| 2026-05-07 22:31 | 52.94562 | 11.90772 | 32214 ft | 480 kts | 126° |
| 2026-05-07 22:32 | 52.92579 | 11.95208 | 32536 ft | 480 kts | 127° |
| 2026-05-07 22:32 | 52.90556 | 11.99616 | 32839 ft | 480 kts | 128° |
| 2026-05-07 22:32 | 52.88522 | 12.04027 | 33026 ft | 484 kts | 128° |
| 2026-05-07 22:33 | 52.84426 | 12.12918 | 33108 ft | 484 kts | 127° |
| 2026-05-07 22:33 | 52.80374 | 12.21706 | 33101 ft | 478 kts | 128° |
| 2026-05-07 22:34 | 52.76333 | 12.30446 | 33110 ft | 478 kts | 128° |
| 2026-05-07 22:34 | 52.72259 | 12.39117 | 33114 ft | 478 kts | 131° |
| 2026-05-07 22:35 | 52.67435 | 12.46642 | 33128 ft | 478 kts | 144° |
| 2026-05-07 22:35 | 52.61938 | 12.52764 | 33103 ft | 479 kts | 146° |
| 2026-05-07 22:36 | 52.57333 | 12.57954 | 33105 ft | 479 kts | 146° |
| 2026-05-07 22:36 | 52.51876 | 12.64168 | 33129 ft | 481 kts | 146° |
| 2026-05-07 22:37 | 52.46369 | 12.70422 | 33102 ft | 482 kts | 146° |
| 2026-05-07 22:37 | 52.40849 | 12.76658 | 33126 ft | 483 kts | 146° |
| 2026-05-07 22:38 | 52.35310 | 12.82889 | 33103 ft | 483 kts | 146° |
| 2026-05-07 22:38 | 52.29773 | 12.89098 | 33107 ft | 482 kts | 146° |
| 2026-05-07 22:39 | 52.24241 | 12.95283 | 33102 ft | 482 kts | 146° |
| 2026-05-07 22:39 | 52.18705 | 13.01453 | 33128 ft | 481 kts | 146° |
| 2026-05-07 22:40 | 52.13174 | 13.07600 | 33106 ft | 481 kts | 146° |
| 2026-05-07 22:40 | 52.07644 | 13.13726 | 33102 ft | 481 kts | 146° |
| 2026-05-07 22:41 | 52.02111 | 13.19836 | 33124 ft | 481 kts | 146° |
| 2026-05-07 22:41 | 51.96567 | 13.25942 | 33124 ft | 481 kts | 146° |
| 2026-05-07 22:42 | 51.91025 | 13.32025 | 33142 ft | 482 kts | 146° |
| 2026-05-07 22:42 | 51.85466 | 13.38109 | 33135 ft | 482 kts | 146° |
| 2026-05-07 22:43 | 51.79908 | 13.44173 | 33118 ft | 482 kts | 146° |
| 2026-05-07 22:43 | 51.74341 | 13.50229 | 33110 ft | 482 kts | 147° |
| 2026-05-07 22:44 | 51.68765 | 13.56276 | 33105 ft | 483 kts | 147° |
| 2026-05-07 22:44 | 51.63229 | 13.62262 | 33120 ft | 484 kts | 147° |
| 2026-05-07 22:45 | 51.57636 | 13.68292 | 33099 ft | 483 kts | 147° |
| 2026-05-07 22:45 | 51.52048 | 13.74297 | 33102 ft | 483 kts | 147° |
| 2026-05-07 22:46 | 51.46470 | 13.80275 | 33089 ft | 482 kts | 147° |
| 2026-05-07 22:46 | 51.40886 | 13.86241 | 33106 ft | 483 kts | 147° |
| 2026-05-07 22:47 | 51.35287 | 13.92205 | 33108 ft | 483 kts | 147° |
| 2026-05-07 22:47 | 51.29698 | 13.98140 | 33103 ft | 484 kts | 147° |
| 2026-05-07 22:48 | 51.24079 | 14.04091 | 33101 ft | 485 kts | 147° |
| 2026-05-07 22:48 | 51.18451 | 14.10033 | 33097 ft | 486 kts | 147° |
| 2026-05-07 22:49 | 51.12801 | 14.15980 | 33094 ft | 486 kts | 147° |
| 2026-05-07 22:49 | 51.07156 | 14.21905 | 33091 ft | 487 kts | 148° |
| 2026-05-07 22:50 | 51.01490 | 14.27835 | 33098 ft | 488 kts | 148° |
| 2026-05-07 22:50 | 50.95822 | 14.33753 | 33089 ft | 487 kts | 148° |
| 2026-05-07 22:51 | 50.90179 | 14.39699 | 33075 ft | 487 kts | 146° |
| 2026-05-07 22:51 | 50.84666 | 14.45962 | 33090 ft | 488 kts | 145° |
| 2026-05-07 22:52 | 50.79161 | 14.52262 | 33088 ft | 489 kts | 146° |
| 2026-05-07 22:52 | 50.73620 | 14.58512 | 33082 ft | 489 kts | 146° |
| 2026-05-07 22:53 | 50.68066 | 14.64728 | 33088 ft | 489 kts | 146° |
| 2026-05-07 22:53 | 50.62522 | 14.70912 | 33063 ft | 488 kts | 146° |
| 2026-05-07 22:54 | 50.56987 | 14.77075 | 33070 ft | 487 kts | 147° |
| 2026-05-07 22:54 | 50.51491 | 14.83176 | 33065 ft | 487 kts | 147° |
| 2026-05-07 22:55 | 50.46269 | 14.89939 | 33068 ft | 489 kts | 135° |
| 2026-05-07 22:55 | 50.41708 | 14.97881 | 33071 ft | 490 kts | 134° |
| 2026-05-07 22:56 | 50.25719 | 15.24720 | 33066 ft | 491 kts | 135° |
| 2026-05-07 22:56 | 50.07024 | 15.55736 | 33055 ft | 490 kts | 136° |
| 2026-05-07 22:57 | 49.88311 | 15.86407 | 33040 ft | 487 kts | 136° |
| 2026-05-07 22:57 | 49.69701 | 16.16548 | 33012 ft | 478 kts | 137° |
| 2026-05-07 22:58 | 49.51442 | 16.45770 | 33061 ft | 472 kts | 137° |
| 2026-05-07 22:58 | 49.32981 | 16.74976 | 33045 ft | 484 kts | 137° |
| 2026-05-07 22:59 | 49.14466 | 17.03944 | 32936 ft | 469 kts | 138° |
| 2026-05-07 22:59 | 48.96070 | 17.32391 | 33063 ft | 478 kts | 138° |
| 2026-05-07 23:00 | 48.77202 | 17.61163 | 32983 ft | 476 kts | 139° |
| 2026-05-07 23:00 | 48.58530 | 17.88835 | 33026 ft | 469 kts | 139° |
| 2026-05-07 23:01 | 48.39507 | 18.16772 | 33051 ft | 484 kts | 140° |
| 2026-05-07 23:01 | 48.20365 | 18.44592 | 32960 ft | 470 kts | 141° |
| 2026-05-07 23:02 | 48.01442 | 18.71776 | 33061 ft | 474 kts | 142° |
| 2026-05-07 23:02 | 47.82412 | 18.98833 | 33033 ft | 472 kts | 142° |
| 2026-05-07 23:03 | 47.63510 | 19.25420 | 32984 ft | 470 kts | 142° |
| 2026-05-07 23:03 | 47.44446 | 19.51955 | 33005 ft | 470 kts | 142° |
| 2026-05-07 23:04 | 47.25291 | 19.78341 | 33055 ft | 473 kts | 142° |
| 2026-05-07 23:04 | 47.05981 | 20.04666 | 33054 ft | 475 kts | 142° |
| 2026-05-07 23:05 | 46.86534 | 20.30904 | 33047 ft | 475 kts | 142° |
| 2026-05-07 23:05 | 46.67031 | 20.56949 | 33043 ft | 475 kts | 142° |
| 2026-05-07 23:06 | 46.47470 | 20.82804 | 33027 ft | 475 kts | 142° |
| 2026-05-07 23:06 | 46.27835 | 21.08500 | 33059 ft | 476 kts | 142° |
| 2026-05-07 23:07 | 46.08522 | 21.34970 | 33056 ft | 480 kts | 141° |
| 2026-05-07 23:07 | 45.89229 | 21.61275 | 33035 ft | 482 kts | 141° |
| 2026-05-07 23:08 | 45.69689 | 21.87653 | 33058 ft | 484 kts | 141° |
| 2026-05-07 23:08 | 45.49995 | 22.13970 | 33064 ft | 485 kts | 141° |
| 2026-05-07 23:09 | 45.30174 | 22.40191 | 33088 ft | 488 kts | 141° |
| 2026-05-07 23:09 | 45.10201 | 22.66351 | 33083 ft | 490 kts | 141° |
| 2026-05-07 23:10 | 44.92597 | 22.89195 | 33146 ft | 493 kts | 141° |
| 2026-05-07 23:10 | 44.87007 | 22.96405 | 33814 ft | 494 kts | 141° |
| 2026-05-07 23:10 | 44.84473 | 22.99668 | 34176 ft | 492 kts | 141° |
| 2026-05-07 23:10 | 44.81948 | 23.02918 | 34495 ft | 491 kts | 141° |
| 2026-05-07 23:11 | 44.79426 | 23.06157 | 34758 ft | 490 kts | 141° |
| 2026-05-07 23:11 | 44.76898 | 23.09397 | 34894 ft | 493 kts | 141° |
| 2026-05-07 23:11 | 44.74353 | 23.12655 | 34985 ft | 497 kts | 141° |
| 2026-05-07 23:11 | 44.65295 | 23.24224 | 35106 ft | 506 kts | 141° |
| 2026-05-07 23:12 | 44.54760 | 23.37625 | 35038 ft | 501 kts | 141° |
| 2026-05-07 23:12 | 44.44674 | 23.50392 | 34997 ft | 489 kts | 141° |
| 2026-05-07 23:12 | 44.37880 | 23.58950 | 35022 ft | 484 kts | 141° |
| 2026-05-07 23:13 | 44.14304 | 23.88431 | 35102 ft | 500 kts | 141° |
| 2026-05-07 23:13 | 43.93566 | 24.14110 | 34973 ft | 491 kts | 141° |
| 2026-05-07 23:14 | 43.73226 | 24.39039 | 35071 ft | 492 kts | 141° |
| 2026-05-07 23:14 | 43.62835 | 24.51684 | 35071 ft | 504 kts | 141° |
| 2026-05-07 23:14 | 43.52207 | 24.64561 | 35052 ft | 509 kts | 141° |
| 2026-05-07 23:15 | 43.31196 | 24.89835 | 35004 ft | 494 kts | 142° |
| 2026-05-07 23:15 | 43.10293 | 25.14727 | 35098 ft | 506 kts | 142° |
| 2026-05-07 23:16 | 42.88805 | 25.40088 | 35056 ft | 508 kts | 142° |
| 2026-05-07 23:16 | 42.67648 | 25.64815 | 35080 ft | 500 kts | 142° |
| 2026-05-07 23:17 | 42.46068 | 25.89800 | 35094 ft | 519 kts | 142° |
| 2026-05-07 23:17 | 42.24429 | 26.14625 | 35027 ft | 508 kts | 142° |
| 2026-05-07 23:18 | 42.02889 | 26.39105 | 35041 ft | 507 kts | 143° |
| 2026-05-07 23:18 | 41.80673 | 26.63159 | 35126 ft | 519 kts | 148° |
| 2026-05-07 23:19 | 41.57126 | 26.85170 | 35057 ft | 510 kts | 148° |
| 2026-05-07 23:19 | 41.34171 | 27.06590 | 35076 ft | 500 kts | 148° |
| 2026-05-07 23:20 | 41.10913 | 27.28085 | 35153 ft | 518 kts | 148° |
| 2026-05-07 23:20 | 40.87246 | 27.49873 | 35092 ft | 516 kts | 147° |
| 2026-05-07 23:21 | 40.63836 | 27.71573 | 35079 ft | 515 kts | 148° |
| 2026-05-07 23:21 | 40.39910 | 27.93520 | 35189 ft | 536 kts | 148° |
| 2026-05-07 23:22 | 40.15633 | 28.15603 | 35061 ft | 528 kts | 148° |
| 2026-05-07 23:22 | 39.91427 | 28.37415 | 35148 ft | 532 kts | 148° |
| 2026-05-07 23:23 | 39.76488 | 28.50788 | 35166 ft | 533 kts | 148° |
| 2026-05-07 23:23 | 39.52030 | 28.72523 | 35271 ft | 533 kts | 148° |
| 2026-05-07 23:24 | 39.27562 | 28.94082 | 35183 ft | 530 kts | 148° |
| 2026-05-07 23:24 | 39.03253 | 29.15315 | 35194 ft | 527 kts | 148° |
| 2026-05-07 23:25 | 38.79074 | 29.36261 | 35243 ft | 522 kts | 148° |
| 2026-05-07 23:25 | 38.67284 | 29.47104 | 35136 ft | 524 kts | 137° |
| 2026-05-07 23:25 | 38.58257 | 29.61628 | 35237 ft | 520 kts | 125° |
| 2026-05-07 23:26 | 38.41223 | 29.91468 | 35229 ft | 518 kts | 126° |
| 2026-05-07 23:26 | 38.24215 | 30.20982 | 35226 ft | 515 kts | 126° |
| 2026-05-07 23:27 | 37.98712 | 30.64826 | 35180 ft | 513 kts | 126° |
| 2026-05-07 23:27 | 37.81808 | 30.93650 | 35208 ft | 514 kts | 126° |
| 2026-05-07 23:28 | 37.64684 | 31.22609 | 35233 ft | 515 kts | 126° |
| 2026-05-07 23:28 | 37.47455 | 31.51493 | 35192 ft | 515 kts | 127° |
| 2026-05-07 23:29 | 37.30129 | 31.80261 | 35247 ft | 515 kts | 126° |
| 2026-05-07 23:29 | 37.12722 | 32.08866 | 35228 ft | 515 kts | 127° |
| 2026-05-07 23:30 | 36.95254 | 32.37339 | 35233 ft | 516 kts | 127° |
| 2026-05-07 23:30 | 36.80680 | 32.60928 | 35233 ft | 515 kts | 127° |
| 2026-05-07 23:31 | 36.60152 | 32.93921 | 35188 ft | 516 kts | 127° |
| 2026-05-07 23:31 | 36.45485 | 33.17303 | 35148 ft | 516 kts | 127° |
| 2026-05-07 23:32 | 36.27729 | 33.45332 | 35141 ft | 516 kts | 128° |
| 2026-05-07 23:32 | 36.09889 | 33.73227 | 35101 ft | 516 kts | 128° |
| 2026-05-07 23:33 | 35.91651 | 34.00659 | 35092 ft | 517 kts | 139° |
| 2026-05-07 23:33 | 35.79729 | 34.10375 | 35123 ft | 514 kts | 151° |
| 2026-05-07 23:33 | 35.75726 | 34.13310 | 35121 ft | 514 kts | 150° |
| 2026-05-07 23:34 | 35.51148 | 34.31286 | 35114 ft | 515 kts | 151° |
| 2026-05-07 23:34 | 35.26491 | 34.49152 | 35102 ft | 515 kts | 151° |
| 2026-05-07 23:35 | 35.01836 | 34.66892 | 35099 ft | 514 kts | 151° |
| 2026-05-07 23:35 | 34.77173 | 34.84530 | 35087 ft | 514 kts | 151° |
| 2026-05-07 23:36 | 34.52524 | 35.02075 | 35089 ft | 513 kts | 147° |
| 2026-05-07 23:36 | 34.48482 | 35.06612 | 35078 ft | 511 kts | 124° |
| 2026-05-07 23:36 | 34.44437 | 35.18235 | 35113 ft | 506 kts | 105° |
| 2026-05-07 23:37 | 34.35515 | 35.50727 | 35091 ft | 510 kts | 106° |
| 2026-05-07 23:37 | 34.29450 | 35.83882 | 35125 ft | 505 kts | 89° |
| 2026-05-07 23:38 | 34.28082 | 36.17722 | 35089 ft | 508 kts | 89° |
| 2026-05-07 23:38 | 34.26848 | 36.51814 | 35164 ft | 509 kts | 89° |
| 2026-05-07 23:39 | 34.24478 | 36.86031 | 35150 ft | 511 kts | 92° |
| 2026-05-07 23:39 | 34.21789 | 37.19656 | 35126 ft | 508 kts | 98° |
| 2026-05-07 23:40 | 34.17929 | 37.27971 | 35196 ft | 506 kts | 140° |
| 2026-05-07 23:40 | 34.05617 | 37.35748 | 35158 ft | 501 kts | 156° |
| 2026-05-07 23:40 | 33.80502 | 37.50711 | 35130 ft | 504 kts | 156° |
| 2026-05-07 23:41 | 33.55392 | 37.65557 | 35078 ft | 501 kts | 156° |
| 2026-05-07 23:41 | 33.30438 | 37.79840 | 35034 ft | 488 kts | 157° |
| 2026-05-07 23:42 | 33.06282 | 37.93560 | 35053 ft | 479 kts | 157° |
| 2026-05-07 23:42 | 32.82432 | 38.07406 | 35032 ft | 479 kts | 156° |
| 2026-05-07 23:43 | 32.58711 | 38.21454 | 35062 ft | 475 kts | 156° |
| 2026-05-07 23:43 | 32.35122 | 38.35350 | 35061 ft | 473 kts | 157° |
| 2026-05-07 23:44 | 32.11570 | 38.49142 | 35071 ft | 472 kts | 157° |
| 2026-05-07 23:44 | 31.88020 | 38.62859 | 35062 ft | 472 kts | 157° |
| 2026-05-07 23:45 | 31.64699 | 38.76966 | 35027 ft | 474 kts | 152° |
| 2026-05-07 23:45 | 31.42261 | 38.93190 | 35093 ft | 472 kts | 152° |
| 2026-05-07 23:46 | 31.19877 | 39.09127 | 35078 ft | 470 kts | 152° |
| 2026-05-07 23:46 | 30.97555 | 39.24943 | 35100 ft | 469 kts | 152° |
| 2026-05-07 23:47 | 30.75397 | 39.40587 | 35092 ft | 469 kts | 152° |
| 2026-05-07 23:47 | 30.53064 | 39.56271 | 35089 ft | 469 kts | 152° |
| 2026-05-07 23:48 | 30.33665 | 39.76312 | 35121 ft | 479 kts | 130° |
| 2026-05-07 23:48 | 30.17724 | 40.01070 | 35094 ft | 480 kts | 131° |
| 2026-05-07 23:49 | 30.01723 | 40.25720 | 35072 ft | 479 kts | 132° |
| 2026-05-07 23:49 | 29.85697 | 40.50211 | 35080 ft | 478 kts | 134° |
| 2026-05-07 23:50 | 29.72705 | 40.71107 | 35086 ft | 494 kts | 128° |
| 2026-05-07 23:50 | 29.55678 | 41.02891 | 35051 ft | 498 kts | 130° |
| 2026-05-07 23:51 | 29.41232 | 41.29477 | 35044 ft | 486 kts | 131° |
| 2026-05-07 23:51 | 29.26634 | 41.56128 | 35085 ft | 502 kts | 131° |
| 2026-05-07 23:52 | 29.11947 | 41.82801 | 34995 ft | 490 kts | 132° |
| 2026-05-07 23:52 | 28.97534 | 42.08788 | 35056 ft | 484 kts | 133° |
| 2026-05-07 23:53 | 28.82857 | 42.35118 | 35007 ft | 493 kts | 133° |
| 2026-05-07 23:53 | 28.68368 | 42.60956 | 34983 ft | 476 kts | 133° |
| 2026-05-07 23:54 | 28.60514 | 42.72889 | 35013 ft | 465 kts | 144° |
| 2026-05-07 23:54 | 28.51542 | 42.83744 | 35052 ft | 477 kts | 143° |
| 2026-05-07 23:54 | 28.33398 | 43.05945 | 34955 ft | 474 kts | 143° |
| 2026-05-07 23:55 | 28.15547 | 43.27630 | 34984 ft | 470 kts | 144° |
| 2026-05-07 23:55 | 27.97325 | 43.49652 | 34981 ft | 488 kts | 143° |
| 2026-05-07 23:56 | 27.78633 | 43.71675 | 34916 ft | 474 kts | 147° |
| 2026-05-07 23:56 | 27.59647 | 43.92112 | 34960 ft | 475 kts | 147° |
| 2026-05-07 23:57 | 27.40214 | 44.13129 | 34963 ft | 491 kts | 147° |
| 2026-05-07 23:57 | 27.20687 | 44.34145 | 34914 ft | 479 kts | 147° |
| 2026-05-07 23:58 | 27.01272 | 44.54898 | 35022 ft | 490 kts | 147° |
| 2026-05-07 23:58 | 26.81353 | 44.76161 | 34925 ft | 492 kts | 147° |
| 2026-05-07 23:59 | 26.61953 | 44.96694 | 34972 ft | 480 kts | 147° |
| 2026-05-07 23:59 | 26.42117 | 45.17588 | 35013 ft | 499 kts | 146° |
| 2026-05-08 00:00 | 26.21925 | 45.38825 | 34900 ft | 493 kts | 146° |
| 2026-05-08 00:00 | 26.02137 | 45.59523 | 35015 ft | 490 kts | 146° |
| 2026-05-08 00:01 | 25.82087 | 45.80388 | 34988 ft | 495 kts | 146° |
| 2026-05-08 00:01 | 25.62027 | 46.01180 | 34979 ft | 488 kts | 146° |
| 2026-05-08 00:02 | 25.42337 | 46.21487 | 35030 ft | 484 kts | 146° |
| 2026-05-08 00:02 | 25.22232 | 46.42132 | 35073 ft | 500 kts | 146° |
| 2026-05-08 00:03 | 25.02041 | 46.62781 | 34976 ft | 486 kts | 146° |
| 2026-05-08 00:03 | 24.90986 | 46.70274 | 34986 ft | 458 kts | 166° |
| 2026-05-08 00:03 | 24.79087 | 46.75777 | 35063 ft | 470 kts | 165° |
| 2026-05-08 00:04 | 24.54841 | 46.87155 | 35035 ft | 477 kts | 164° |
| 2026-05-08 00:04 | 24.30872 | 46.98345 | 34953 ft | 461 kts | 164° |
| 2026-05-08 00:05 | 24.08335 | 47.12402 | 34961 ft | 509 kts | 131° |
| 2026-05-08 00:05 | 23.93318 | 47.39008 | 34954 ft | 508 kts | 129° |
| 2026-05-08 00:06 | 23.78510 | 47.64714 | 34918 ft | 498 kts | 129° |
| 2026-05-08 00:06 | 23.63481 | 47.90689 | 34935 ft | 512 kts | 128° |
| 2026-05-08 00:07 | 23.48409 | 48.16619 | 34838 ft | 498 kts | 128° |
| 2026-05-08 00:07 | 23.37637 | 48.44283 | 34913 ft | 530 kts | 95° |
| 2026-05-08 00:08 | 23.36474 | 48.76718 | 34832 ft | 533 kts | 96° |
| 2026-05-08 00:08 | 23.35349 | 49.03102 | 34811 ft | 518 kts | 96° |
| 2026-05-08 00:09 | 23.33314 | 49.19828 | 35373 ft | 522 kts | 103° |
| 2026-05-08 00:09 | 23.32735 | 49.23723 | 35665 ft | 520 kts | 103° |
| 2026-05-08 00:09 | 23.32167 | 49.27605 | 35987 ft | 518 kts | 103° |
| 2026-05-08 00:09 | 23.31606 | 49.31477 | 36305 ft | 517 kts | 103° |
| 2026-05-08 00:10 | 23.31050 | 49.35333 | 36561 ft | 516 kts | 103° |
| 2026-05-08 00:10 | 23.30493 | 49.39186 | 36756 ft | 517 kts | 103° |
| 2026-05-08 00:10 | 23.28893 | 49.50191 | 36857 ft | 525 kts | 103° |
| 2026-05-08 00:10 | 23.26599 | 49.65909 | 36856 ft | 525 kts | 103° |
| 2026-05-08 00:11 | 23.22088 | 49.96465 | 36787 ft | 505 kts | 103° |
| 2026-05-08 00:11 | 23.17564 | 50.26642 | 36883 ft | 512 kts | 103° |
| 2026-05-08 00:12 | 23.12871 | 50.57567 | 36817 ft | 519 kts | 103° |